Startpagina
METAR-TAF:

METAR-TAF

Vliegvelden :

Kassala, Soedan

breedte: 15-28N, lengte: 036-24E, hoogte: 500 m

METAR: ontbreekt

Tijdstip: 19:52 (16:52 UTC)

Verwachting

Dit bericht is 5 uur en het 52 minuten geleden gemaakt, om 11:00 UTC
Verwachting geldig van 17 om 12 UTC tot 18 om 18 UTC
Wind 3 kt uit variabele richting
Zicht 10 km of meer
Verspreide wolken op 14000 ft
Tijdelijke
van 17 om 12 UTC tot 17 om 15 UTC
Zicht 10 km of meer
Verspreide wolken op 4000 ft
Gebroken wolken op 14000 ft
Kans 30%
van 17 om 15 UTC tot 17 om 19 UTC
Zicht: 6000 m
Gebroken wolken op 14000 ft
lichte regen

TAF: HSKA 171100Z 1712/1818 VRB03KT 9999 SCT140 TEMPO 1712/1715 9999 SCT040 BKN140 PROB30 1715/1719 6000 -RA BKN140

Waarnemingen en weersverwachtingen van meer dan 4000 vliegvelden (METAR en TAF).

De beschikbare stations zijn de gele en rode punten op de kaart.

Ga met uw muis naar het station om de naam te zien.

Klik dan om waarnemingen en weersverwachtingen te zien.

kaart wijzigen: klik op de groene knoppen met een zwart kruis om in te zoomen, op de groene knop met een streepje om uit te zoomen of op de groene pijlen voor aangrenzende kaarten.


METAR-TAF: